Time;durP1;ratioP1;P1;durP2;ratioP2;P2;SDS_P1;SDS_P2;PMS_P1;PMS_P2;Temp;Humidity;BMP_temperature;BMP_pressure;BME280_temperature;BME280_humidity;BME280_pressure;Samples;Min_cycle;Max_cycle;Signal;HPM_P1;HPM_P2
2022/04/11 00:00:20;;;;;;;9.07;5.27;;;;;;;-0.16;80.48;95592.00;1726947;83;21504;-73
2022/04/11 00:02:48;;;;;;;5.40;3.80;;;;;;;-0.18;80.44;95591.95;1726688;83;21007;-73
2022/04/11 00:05:15;;;;;;;9.00;4.30;;;;;;;-0.19;80.27;95603.18;1727128;83;21072;-73
2022/04/11 00:07:41;;;;;;;8.93;4.60;;;;;;;-0.24;80.38;95606.09;1726965;83;21579;-73
2022/04/11 00:10:09;;;;;;;6.73;4.70;;;;;;;-0.41;80.56;95611.30;1726865;83;21584;-73
2022/04/11 00:12:37;;;;;;;7.87;4.20;;;;;;;-0.41;80.91;95610.87;1727035;83;21066;-73
2022/04/11 00:15:08;;;;;;;8.00;4.60;;;;;;;-0.45;81.11;95608.64;1727137;83;21010;-73
2022/04/11 00:17:36;;;;;;;7.93;5.03;;;;;;;-0.41;81.15;95604.39;1727108;83;21587;-73
2022/04/11 00:20:05;;;;;;;6.67;4.63;;;;;;;-0.39;81.27;95604.44;1726923;83;21508;-73
2022/04/11 00:22:36;;;;;;;7.20;5.20;;;;;;;-0.44;81.14;95606.92;1726949;83;21030;-73
2022/04/11 00:25:04;;;;;;;8.67;5.50;;;;;;;-0.42;81.32;95609.56;1726833;83;21094;-74
2022/04/11 00:27:31;;;;;;;6.83;4.90;;;;;;;-0.42;81.10;95609.56;1727243;83;20991;-73
2022/04/11 00:29:57;;;;;;;8.03;5.20;;;;;;;-0.49;80.72;95605.50;1726943;83;21026;-73
2022/04/11 00:32:23;;;;;;;11.03;5.27;;;;;;;-0.56;80.77;95614.39;1726915;83;21019;-73
2022/04/11 00:34:50;;;;;;;9.27;6.20;;;;;;;-0.60;80.83;95608.27;1726961;83;20994;-73
2022/04/11 00:37:17;;;;;;;10.70;6.47;;;;;;;-0.62;81.75;95606.06;1726848;83;21082;-74
2022/04/11 00:39:44;;;;;;;9.73;6.87;;;;;;;-0.69;82.19;95616.68;1726919;83;21524;-73
2022/04/11 00:42:15;;;;;;;9.40;6.00;;;;;;;-0.72;82.69;95614.45;1727027;83;20991;-73
2022/04/11 00:44:43;;;;;;;6.33;4.33;;;;;;;-0.83;81.68;95614.58;1726979;83;20986;-76
2022/04/11 00:47:09;;;;;;;7.63;4.60;;;;;;;-0.83;81.82;95623.25;1726891;83;21034;-76
2022/04/11 00:49:36;;;;;;;6.73;4.90;;;;;;;-0.80;81.90;95619.86;1727007;83;21015;-76
2022/04/11 00:52:06;;;;;;;8.23;4.40;;;;;;;-0.77;81.97;95623.39;1726756;83;21022;-75
2022/04/11 00:54:33;;;;;;;9.03;4.93;;;;;;;-0.71;81.95;95623.95;1726941;83;21066;-75
2022/04/11 00:57:02;;;;;;;7.17;4.93;;;;;;;-0.66;81.82;95628.84;1726907;83;21572;-75
2022/04/11 00:59:29;;;;;;;7.47;3.90;;;;;;;-0.64;81.85;95628.46;1726841;83;21018;-75
2022/04/11 01:01:56;;;;;;;5.93;3.80;;;;;;;-0.73;81.20;95633.01;1727005;83;21032;-75
2022/04/11 01:04:27;;;;;;;4.37;3.17;;;;;;;-0.76;81.37;95626.42;1726872;83;21014;-75
2022/04/11 01:06:55;;;;;;;4.23;2.93;;;;;;;-0.74;81.41;95627.34;1726720;83;21030;-75
2022/04/11 01:09:26;;;;;;;7.00;3.70;;;;;;;-0.77;81.26;95631.59;1726897;83;21023;-75
2022/04/11 01:11:53;;;;;;;5.53;3.60;;;;;;;-0.84;81.23;95637.02;1727149;83;21066;-75
2022/04/11 01:14:20;;;;;;;5.47;3.77;;;;;;;-0.89;81.20;95634.31;1726897;83;21501;-75
2022/04/11 01:16:51;;;;;;;5.40;3.30;;;;;;;-0.88;81.51;95635.21;1727001;83;21027;-76
2022/04/11 01:19:20;;;;;;;5.93;4.00;;;;;;;-0.93;81.78;95638.10;1726841;83;21050;-75
2022/04/11 01:21:47;;;;;;;7.53;3.53;;;;;;;-0.97;82.02;95645.32;1726842;83;21046;-76
2022/04/11 01:24:21;;;;;;;4.80;3.50;;;;;;;-0.95;81.90;95648.84;1726669;83;21035;-76
2022/04/11 01:26:50;;;;;;;6.25;3.30;;;;;;;-1.03;81.77;95658.98;1721675;83;21039;-76
2022/04/11 01:29:19;;;;;;;3.97;2.40;;;;;;;-1.09;81.62;95661.40;1718790;83;21003;-76
2022/04/11 01:31:46;;;;;;;4.87;2.90;;;;;;;-1.13;81.93;95660.88;1718743;83;21091;-76
2022/04/11 01:34:14;;;;;;;4.33;2.97;;;;;;;-1.13;82.00;95655.70;1690376;83;20967;-75
2022/04/11 01:36:41;;;;;;;4.43;3.13;;;;;;;-1.04;82.20;95655.05;1718652;83;21488;-76
2022/04/11 01:39:09;;;;;;;4.20;3.03;;;;;;;-0.97;82.53;95656.97;1718570;83;21561;-75
2022/04/11 01:41:36;;;;;;;4.57;2.90;;;;;;;-0.94;82.04;95654.45;1718577;83;21027;-75
2022/04/11 01:44:03;;;;;;;3.73;2.33;;;;;;;-0.91;82.09;95656.73;1718778;83;20999;-75
2022/04/11 01:46:30;;;;;;;4.57;2.70;;;;;;;-0.82;82.12;95665.14;1718730;83;21023;-75
2022/04/11 01:48:58;;;;;;;6.33;2.90;;;;;;;-0.86;81.53;95656.82;1716977;83;21023;-75
2022/04/11 01:51:25;;;;;;;6.00;2.90;;;;;;;-0.93;81.17;95664.00;1718900;83;21607;-75
2022/04/11 01:53:51;;;;;;;5.00;2.60;;;;;;;-1.06;80.79;95662.77;1718627;83;21035;-75
2022/04/11 01:56:18;;;;;;;4.57;2.60;;;;;;;-1.09;81.03;95665.28;1718710;83;21022;-75
2022/04/11 01:58:46;;;;;;;4.00;2.60;;;;;;;-1.16;81.11;95675.00;1718669;83;21050;-75
2022/04/11 02:01:18;;;;;;;5.40;2.67;;;;;;;-1.15;81.43;95676.78;1718670;83;21141;-75
2022/04/11 02:03:45;;;;;;;6.37;3.00;;;;;;;-1.14;81.59;95678.09;1718767;83;21480;-75
2022/04/11 02:06:12;;;;;;;5.70;2.20;;;;;;;-1.18;81.31;95679.29;1718732;83;21059;-75
2022/04/11 02:08:39;;;;;;;4.37;2.90;;;;;;;-1.32;80.97;95679.76;1718466;83;21015;-76
2022/04/11 02:11:08;;;;;;;9.40;3.23;;;;;;;-1.36;81.27;95679.63;1718257;83;21103;-76
2022/04/11 02:13:35;;;;;;;4.53;2.40;;;;;;;-1.34;81.87;95684.01;1718845;83;21535;-76
2022/04/11 02:16:01;;;;;;;6.77;3.00;;;;;;;-1.36;81.73;95684.41;1718773;83;21007;-76
2022/04/11 02:18:28;;;;;;;6.37;2.60;;;;;;;-1.44;81.51;95676.81;1718383;83;21509;-75
2022/04/11 02:20:55;;;;;;;8.20;4.17;;;;;;;-1.42;82.11;95682.92;1718754;83;21065;-75
2022/04/11 02:23:22;;;;;;;7.47;3.60;;;;;;;-1.39;82.27;95679.13;1718474;83;20999;-75
2022/04/11 02:25:49;;;;;;;6.17;3.10;;;;;;;-1.35;82.05;95678.39;1718528;83;21030;-75
2022/04/11 02:28:15;;;;;;;9.07;3.20;;;;;;;-1.33;82.21;95680.61;1718750;83;21485;-75
2022/04/11 02:30:42;;;;;;;7.23;3.03;;;;;;;-1.42;81.66;95682.05;1718529;83;21577;-75
2022/04/11 02:33:09;;;;;;;4.97;3.00;;;;;;;-1.46;81.97;95686.28;1718640;83;21006;-75
2022/04/11 02:35:36;;;;;;;4.30;3.10;;;;;;;-1.44;82.17;95686.30;1718704;83;21091;-75
2022/04/11 02:38:03;;;;;;;11.07;3.60;;;;;;;-1.41;82.31;95693.75;1718490;83;21042;-75
2022/04/11 02:40:30;;;;;;;5.77;3.53;;;;;;;-1.41;82.09;95696.73;1718611;83;21123;-75
2022/04/11 02:42:59;;;;;;;4.40;2.73;;;;;;;-1.39;82.47;95693.78;1716599;83;21075;-75
2022/04/11 02:45:27;;;;;;;8.27;3.67;;;;;;;-1.38;82.24;95708.07;1718416;83;21142;-75
2022/04/11 02:47:54;;;;;;;4.10;2.13;;;;;;;-1.41;82.01;95704.50;1718692;83;20980;-76
2022/04/11 02:50:20;;;;;;;5.73;2.97;;;;;;;-1.46;81.75;95710.86;1718789;83;21137;-76
2022/04/11 02:52:52;;;;;;;6.40;3.47;;;;;;;-1.50;81.79;95708.13;1717360;83;21469;-76
2022/04/11 02:55:21;;;;;;;6.47;3.00;;;;;;;-1.54;82.01;95719.69;1718586;83;21011;-76
2022/04/11 02:57:48;;;;;;;3.60;2.87;;;;;;;-1.48;82.27;95720.28;1718583;83;21042;-76
2022/04/11 03:00:15;;;;;;;6.70;3.50;;;;;;;-1.47;82.30;95714.69;1718635;83;21058;-76
2022/04/11 03:02:44;;;;;;;7.93;2.93;;;;;;;-1.49;82.21;95718.93;1717315;83;21031;-76
2022/04/11 03:05:11;;;;;;;5.70;3.97;;;;;;;-1.53;82.18;95721.86;1718745;83;21030;-76
2022/04/11 03:07:39;;;;;;;5.13;3.83;;;;;;;-1.46;82.88;95719.92;1718525;83;21098;-76
2022/04/11 03:10:08;;;;;;;7.77;3.73;;;;;;;-1.38;82.66;95724.89;1718704;83;21520;-75
2022/04/11 03:12:35;;;;;;;6.47;2.80;;;;;;;-1.40;82.30;95725.26;1718531;83;21046;-75
2022/04/11 03:15:04;;;;;;;5.50;2.93;;;;;;;-1.38;82.27;95730.07;1718706;83;21488;-75
2022/04/11 03:17:31;;;;;;;4.50;3.03;;;;;;;-1.33;82.34;95726.33;1718697;83;21054;-75
2022/04/11 03:19:58;;;;;;;5.50;3.47;;;;;;;-1.31;82.15;95724.67;1718542;83;21015;-75
2022/04/11 03:22:25;;;;;;;6.47;3.20;;;;;;;-1.31;82.11;95726.83;1718662;83;21023;-75
2022/04/11 03:24:53;;;;;;;3.93;2.77;;;;;;;-1.23;82.19;95730.06;1718404;83;21533;-75
2022/04/11 03:27:20;;;;;;;5.73;3.10;;;;;;;-1.31;81.82;95727.25;1723254;83;21042;-75
2022/04/11 03:29:46;;;;;;;4.13;3.07;;;;;;;-1.41;81.63;95730.38;1726913;83;21010;-75
2022/04/11 03:32:14;;;;;;;8.73;4.13;;;;;;;-1.39;81.97;95736.06;1726734;83;21540;-75
2022/04/11 03:34:40;;;;;;;4.37;3.07;;;;;;;-1.37;82.27;95733.11;1726840;83;20967;-75
2022/04/11 03:37:07;;;;;;;6.00;3.40;;;;;;;-1.25;82.64;95732.59;1702081;83;21464;-76
2022/04/11 03:39:35;;;;;;;5.63;3.27;;;;;;;-1.24;82.39;95736.92;1726080;83;21575;-76
2022/04/11 03:42:03;;;;;;;5.00;3.20;;;;;;;-1.16;82.27;95734.55;1726819;83;21022;-75
2022/04/11 03:44:31;;;;;;;5.50;3.47;;;;;;;-1.16;82.42;95741.93;1726804;83;21070;-75
2022/04/11 03:46:59;;;;;;;4.23;2.93;;;;;;;-1.14;82.30;95737.65;1726695;83;21050;-75
2022/04/11 03:49:28;;;;;;;4.37;3.40;;;;;;;-1.06;82.54;95743.47;1726699;83;21002;-75
2022/04/11 03:51:56;;;;;;;8.37;3.80;;;;;;;-1.03;82.29;95749.63;1726802;83;21563;-75
2022/04/11 03:54:23;;;;;;;7.23;3.73;;;;;;;-0.99;82.17;95751.45;1726634;83;21026;-75
2022/04/11 03:56:49;;;;;;;8.80;4.83;;;;;;;-0.97;82.21;95746.33;1726932;83;20982;-75
2022/04/11 03:59:16;;;;;;;9.97;5.27;;;;;;;-1.02;81.91;95745.32;1726928;83;21011;-75
2022/04/11 04:01:42;;;;;;;7.00;4.50;;;;;;;-1.03;82.53;95750.02;1726725;83;21058;-75
2022/04/11 04:04:09;;;;;;;10.20;5.17;;;;;;;-0.94;83.09;95752.45;1726802;83;21504;-75
2022/04/11 04:06:35;;;;;;;12.10;6.00;;;;;;;-0.88;83.14;95758.25;1726963;83;21574;-75
2022/04/11 04:09:04;;;;;;;13.80;7.30;;;;;;;-0.81;83.27;95756.26;1726586;83;21061;-76
2022/04/11 04:11:32;;;;;;;14.33;5.73;;;;;;;-0.69;83.13;95759.61;1726593;83;21023;-75
2022/04/11 04:14:04;;;;;;;12.07;7.50;;;;;;;-0.65;83.12;95761.47;1724570;83;21041;-76
2022/04/11 04:16:32;;;;;;;15.13;5.87;;;;;;;-0.59;83.26;95762.91;1726730;83;21019;-77
2022/04/11 04:19:00;;;;;;;14.00;5.87;;;;;;;-0.49;83.16;95769.22;1726806;83;21047;-76
2022/04/11 04:21:27;;;;;;;7.97;4.67;;;;;;;-0.44;83.14;95769.80;1726877;83;21141;-76
2022/04/11 04:23:54;;;;;;;7.57;5.03;;;;;;;-0.33;83.22;95771.79;1726925;83;20975;-76
2022/04/11 04:26:22;;;;;;;8.37;4.93;;;;;;;-0.23;83.03;95779.87;1726859;83;21039;-76
2022/04/11 04:28:49;;;;;;;7.20;4.40;;;;;;;-0.13;82.69;95778.36;1726708;83;21064;-74
2022/04/11 04:31:16;;;;;;;8.27;4.10;;;;;;;-0.02;82.03;95782.55;1726779;83;21026;-74
2022/04/11 04:33:43;;;;;;;9.17;5.07;;;;;;;0.02;81.23;95777.87;1726862;83;21386;-74
2022/04/11 04:36:10;;;;;;;9.73;6.10;;;;;;;0.10;80.91;95778.06;1726720;83;21488;-74
2022/04/11 04:38:37;;;;;;;9.93;5.47;;;;;;;0.08;80.55;95783.23;1726746;83;21544;-74
2022/04/11 04:41:03;;;;;;;10.77;6.47;;;;;;;0.11;80.66;95782.42;1702316;83;21010;-74
2022/04/11 04:43:30;;;;;;;10.13;6.77;;;;;;;0.14;80.45;95782.49;1726834;83;21027;-74
2022/04/11 04:45:57;;;;;;;15.40;7.67;;;;;;;0.13;80.37;95782.92;1726958;83;20982;-75
2022/04/11 04:48:25;;;;;;;14.07;7.73;;;;;;;0.15;80.50;95790.72;1705121;83;21027;-74
2022/04/11 04:50:52;;;;;;;12.73;7.93;;;;;;;0.15;80.38;95792.02;1727071;83;21015;-74
2022/04/11 04:53:19;;;;;;;18.30;10.70;;;;;;;0.16;80.21;95793.37;1726547;83;21026;-74
2022/04/11 04:55:46;;;;;;;12.50;8.17;;;;;;;0.21;80.19;95793.48;1726890;83;21019;-77
2022/04/11 04:58:13;;;;;;;15.63;7.93;;;;;;;0.22;80.22;95791.34;1726838;83;21041;-77
2022/04/11 05:00:40;;;;;;;11.40;7.17;;;;;;;0.30;80.23;95793.69;1726970;83;20979;-79
2022/04/11 05:03:06;;;;;;;11.93;7.03;;;;;;;0.38;80.04;95796.50;1726222;83;21164;-73
2022/04/11 05:05:35;;;;;;;11.20;5.30;;;;;;;0.47;79.60;95791.50;1726604;83;20975;-71
2022/04/11 05:08:03;;;;;;;9.90;5.77;;;;;;;0.52;79.18;95798.09;1725704;83;21077;-72
2022/04/11 05:10:32;;;;;;;8.53;5.57;;;;;;;0.56;79.48;95797.34;1725813;83;21006;-71
2022/04/11 05:12:58;;;;;;;9.37;5.00;;;;;;;0.63;79.02;95801.80;1726812;83;21018;-68
2022/04/11 05:15:25;;;;;;;9.27;5.33;;;;;;;0.62;78.34;95806.55;1725442;83;21552;-72
2022/04/11 05:17:53;;;;;;;8.40;5.43;;;;;;;0.61;78.15;95804.39;1726410;83;21536;-76
2022/04/11 05:20:21;;;;;;;9.67;6.90;;;;;;;0.55;78.02;95805.53;1726770;83;20999;-77
2022/04/11 05:22:48;;;;;;;11.73;6.80;;;;;;;0.49;77.95;95805.83;1727155;83;21073;-78
2022/04/11 05:25:15;;;;;;;13.40;7.53;;;;;;;0.39;78.04;95812.09;1726720;83;21029;-73
2022/04/11 05:27:42;;;;;;;12.03;7.30;;;;;;;0.31;78.58;95808.44;1726746;83;20987;-68
2022/04/11 05:30:10;;;;;;;13.53;8.03;;;;;;;0.18;78.81;95816.34;1701775;83;21011;-68
2022/04/11 05:32:37;;;;;;;11.83;6.63;;;;;;;0.05;79.33;95815.98;1724943;83;21065;-73
2022/04/11 05:35:06;;;;;;;14.03;7.40;;;;;;;0.00;79.65;95819.78;1726052;83;21050;-68
2022/04/11 05:37:33;;;;;;;10.00;6.77;;;;;;;-0.04;79.97;95822.70;1725952;83;21038;-73
2022/04/11 05:40:00;;;;;;;11.13;5.97;;;;;;;-0.03;80.21;95823.14;1725806;83;21034;-74
2022/04/11 05:42:27;;;;;;;11.43;5.97;;;;;;;0.03;80.27;95831.53;1726353;83;21068;-70
2022/04/11 05:44:54;;;;;;;12.30;6.23;;;;;;;0.09;80.02;95822.59;1725494;83;21023;-78
2022/04/11 05:47:20;;;;;;;10.53;5.60;;;;;;;0.20;79.84;95825.44;1725768;83;21369;-76
2022/04/11 05:49:49;;;;;;;10.17;6.00;;;;;;;0.29;79.50;95823.09;1725594;83;21083;-74
2022/04/11 05:52:21;;;;;;;9.03;5.00;;;;;;;0.40;79.39;95832.42;1725468;83;21110;-71
2022/04/11 05:54:48;;;;;;;11.60;6.67;;;;;;;0.49;79.48;95831.36;1725707;83;21760;-75
2022/04/11 05:57:15;;;;;;;14.13;7.40;;;;;;;0.58;79.96;95831.98;1726361;83;21046;-71
2022/04/11 05:59:42;;;;;;;17.77;8.00;;;;;;;0.69;80.08;95827.94;1726915;83;21437;-75
2022/04/11 06:02:12;;;;;;;15.87;7.40;;;;;;;0.88;78.99;95834.83;1726272;83;21331;-74
2022/04/11 06:04:39;;;;;;;14.47;8.60;;;;;;;1.01;78.88;95823.47;1725739;83;21176;-78
2022/04/11 06:07:06;;;;;;;13.70;7.90;;;;;;;1.17;78.48;95835.48;1725264;83;21610;-70
2022/04/11 06:09:33;;;;;;;18.10;12.17;;;;;;;1.32;78.69;95825.41;1725835;83;21081;-71
2022/04/11 06:12:00;;;;;;;15.13;9.87;;;;;;;1.44;78.76;95824.36;1725600;83;21054;-75
2022/04/11 06:14:27;;;;;;;12.20;7.60;;;;;;;1.59;78.35;95819.89;1726577;83;21026;-71
2022/04/11 06:16:54;;;;;;;9.97;6.63;;;;;;;1.71;78.35;95820.13;1726830;83;21018;-69
2022/04/11 06:19:20;;;;;;;17.57;7.93;;;;;;;1.90;78.38;95820.47;1720475;83;21132;-72
2022/04/11 06:21:47;;;;;;;11.60;7.90;;;;;;;2.05;77.51;95824.64;1723197;82;21577;-76
2022/04/11 06:24:13;;;;;;;11.43;6.60;;;;;;;2.24;77.15;95826.26;1716212;83;21034;-72
2022/04/11 06:26:40;;;;;;;14.57;8.83;;;;;;;2.40;76.83;95828.28;1725324;83;21047;-76
2022/04/11 06:29:06;;;;;;;14.40;8.03;;;;;;;2.55;76.39;95824.63;1748347;82;21513;-67
2022/04/11 06:31:33;;;;;;;16.47;8.10;;;;;;;2.73;76.11;95820.55;1712021;83;21054;-75
2022/04/11 06:34:03;;;;;;;9.57;6.03;;;;;;;2.87;74.59;95827.27;1711621;83;21035;-74
2022/04/11 06:36:30;;;;;;;12.97;7.03;;;;;;;2.90;73.60;95829.91;1747881;81;21030;-72
2022/04/11 06:38:57;;;;;;;14.80;7.87;;;;;;;2.97;73.98;95828.75;1693276;83;21081;-74
2022/04/11 06:41:24;;;;;;;14.47;7.83;;;;;;;3.06;73.37;95829.72;1728309;82;21081;-73
2022/04/11 06:43:50;;;;;;;12.60;6.37;;;;;;;3.12;72.90;95828.49;1708881;83;20988;-73
2022/04/11 06:46:23;;;;;;;11.80;6.77;;;;;;;3.15;72.33;95831.13;1708175;84;21499;-75
2022/04/11 06:48:49;;;;;;;8.20;6.07;;;;;;;3.15;71.72;95833.34;1742540;82;21035;-70
2022/04/11 06:51:16;;;;;;;11.03;6.27;;;;;;;3.23;70.89;95834.75;1742599;82;20959;-76
2022/04/11 06:53:42;;;;;;;9.00;4.80;;;;;;;3.28;70.79;95837.42;1706895;83;21458;-73
2022/04/11 06:56:09;;;;;;;8.00;5.27;;;;;;;3.29;69.03;95841.77;1737347;82;21590;-73
2022/04/11 06:58:36;;;;;;;7.10;4.97;;;;;;;3.31;69.41;95843.54;1737218;82;21009;-73
2022/04/11 07:01:02;;;;;;;7.27;4.97;;;;;;;3.43;69.27;95834.58;1737928;81;20963;-73
2022/04/11 07:03:32;;;;;;;7.87;5.00;;;;;;;3.44;67.45;95840.23;1737004;82;21109;-74
2022/04/11 07:05:58;;;;;;;8.07;4.90;;;;;;;3.44;66.78;95838.05;1737510;82;21065;-73
2022/04/11 07:08:25;;;;;;;6.77;4.77;;;;;;;3.51;67.62;95845.54;1737423;82;21065;-74
2022/04/11 07:10:51;;;;;;;6.83;5.00;;;;;;;3.52;66.57;95845.54;1737499;81;20967;-72
2022/04/11 07:13:18;;;;;;;6.20;4.47;;;;;;;3.52;67.92;95845.98;1737845;82;20990;-72
2022/04/11 07:15:44;;;;;;;8.50;5.87;;;;;;;3.47;66.35;95842.87;1737820;81;21026;-74
2022/04/11 07:18:10;;;;;;;12.70;5.93;;;;;;;3.53;67.39;95849.92;1736881;82;21027;-73
2022/04/11 07:20:38;;;;;;;11.20;6.37;;;;;;;3.50;67.44;95856.38;1737639;82;21007;-76
2022/04/11 07:23:05;;;;;;;9.70;6.80;;;;;;;3.43;66.88;95861.09;1736743;82;21073;-73
2022/04/11 07:25:32;;;;;;;12.80;6.70;;;;;;;3.36;66.60;95860.13;1736669;82;21042;-73
2022/04/11 07:27:59;;;;;;;21.40;8.63;;;;;;;3.33;67.88;95864.00;1737097;81;21473;-76
2022/04/11 07:30:26;;;;;;;9.97;6.07;;;;;;;3.37;68.46;95865.78;1737274;81;21073;-76
2022/04/11 07:32:52;;;;;;;11.63;6.30;;;;;;;3.39;68.19;95869.29;1737179;82;21056;-74
2022/04/11 07:35:19;;;;;;;10.13;6.50;;;;;;;3.44;67.73;95871.97;1737457;82;21002;-70
2022/04/11 07:37:45;;;;;;;6.47;4.97;;;;;;;3.42;67.23;95871.06;1736871;82;21085;-74
2022/04/11 07:40:12;;;;;;;10.80;4.97;;;;;;;3.46;68.22;95875.04;1736947;82;21018;-74
2022/04/11 07:42:39;;;;;;;5.77;4.17;;;;;;;3.53;67.27;95866.88;1715603;82;20999;-75
2022/04/11 07:45:07;;;;;;;4.87;3.67;;;;;;;3.55;67.02;95869.05;1715831;82;20990;-73
2022/04/11 07:47:34;;;;;;;6.03;3.77;;;;;;;3.63;66.58;95866.58;1737125;82;21437;-72
2022/04/11 07:50:00;;;;;;;6.83;4.33;;;;;;;3.84;66.27;95871.16;1737741;82;21497;-83
2022/04/11 07:52:27;;;;;;;7.77;5.30;;;;;;;4.19;67.47;95862.86;1737400;82;21097;-78
2022/04/11 07:54:53;;;;;;;5.07;4.03;;;;;;;4.52;64.18;95872.31;1737577;82;21018;-73
2022/04/11 07:57:21;;;;;;;8.57;5.60;;;;;;;4.75;63.66;95868.59;1738039;82;21011;-75
2022/04/11 07:59:48;;;;;;;3.53;2.90;;;;;;;4.97;63.45;95872.26;1737284;81;21026;-70
2022/04/11 08:02:14;;;;;;;6.47;3.50;;;;;;;5.32;60.96;95876.86;1736972;82;21085;-75
2022/04/11 08:04:40;;;;;;;6.23;3.20;;;;;;;5.53;63.61;95867.38;1737386;81;21588;-77
2022/04/11 08:07:07;;;;;;;3.93;2.97;;;;;;;5.40;59.56;95877.78;1737081;82;21139;-70
2022/04/11 08:09:33;;;;;;;8.00;3.67;;;;;;;5.28;58.04;95878.14;1737303;81;21053;-77
2022/04/11 08:12:00;;;;;;;6.90;3.60;;;;;;;5.47;59.17;95861.69;1738014;82;21054;-82
2022/04/11 08:14:27;;;;;;;4.13;3.00;;;;;;;5.56;58.82;95872.19;1737429;82;21018;-74
2022/04/11 08:16:53;;;;;;;4.90;3.30;;;;;;;5.72;57.07;95868.33;1736752;82;21599;-74
2022/04/11 08:19:20;;;;;;;5.60;3.27;;;;;;;5.79;59.52;95865.74;1736570;82;21085;-76
2022/04/11 08:21:46;;;;;;;5.33;2.50;;;;;;;5.90;57.01;95871.49;1737745;82;21022;-74
2022/04/11 08:24:12;;;;;;;5.23;3.20;;;;;;;5.82;56.50;95867.50;1736977;81;21096;-73
2022/04/11 08:26:39;;;;;;;4.67;2.93;;;;;;;5.99;57.17;95864.55;1737966;81;21105;-76
2022/04/11 08:29:06;;;;;;;6.30;3.00;;;;;;;6.10;56.25;95865.02;1757502;81;21045;-74
2022/04/11 08:31:33;;;;;;;3.77;2.30;;;;;;;6.30;54.83;95865.97;1762390;81;21013;-73
2022/04/11 08:34:02;;;;;;;3.90;2.10;;;;;;;6.24;51.44;95869.43;1762288;81;21017;-72
2022/04/11 08:36:28;;;;;;;4.73;2.30;;;;;;;6.32;52.96;95857.66;1762411;80;21583;-71
2022/04/11 08:38:55;;;;;;;4.13;2.67;;;;;;;6.50;52.56;95871.22;1762543;81;21493;-73
2022/04/11 08:41:22;;;;;;;3.80;2.30;;;;;;;6.39;54.18;95868.59;1726371;83;21010;-71
2022/04/11 08:43:51;;;;;;;3.50;1.93;;;;;;;6.55;52.55;95859.44;1726243;83;21444;-68
2022/04/11 08:46:17;;;;;;;2.27;2.00;;;;;;;6.90;53.29;95863.39;1726418;83;21019;-74
2022/04/11 08:48:44;;;;;;;5.43;2.93;;;;;;;7.16;50.52;95864.71;1726341;83;20978;-72
2022/04/11 08:51:11;;;;;;;4.67;2.40;;;;;;;7.36;50.79;95862.06;1726386;83;21481;-72
2022/04/11 08:53:38;;;;;;;2.77;2.10;;;;;;;7.40;48.82;95866.41;1726656;83;20979;-71
2022/04/11 08:56:05;;;;;;;3.37;2.17;;;;;;;7.43;49.43;95859.83;1726277;83;21046;-75
2022/04/11 08:58:31;;;;;;;3.47;1.80;;;;;;;7.38;49.39;95861.59;1726470;83;21429;-71
2022/04/11 09:00:58;;;;;;;3.40;1.93;;;;;;;7.51;45.68;95859.81;1726336;83;20982;-73
2022/04/11 09:03:24;;;;;;;4.60;1.93;;;;;;;7.50;49.02;95858.95;1726214;83;21057;-74
2022/04/11 09:06:08;;;;;;;6.33;2.60;;;;;;;7.36;49.00;95864.69;1725793;83;21058;-74
2022/04/11 09:08:40;;;;;;;3.13;1.93;;;;;;;7.41;47.54;95862.92;1726424;83;21512;-74
2022/04/11 09:11:09;;;;;;;3.37;2.60;;;;;;;7.57;47.65;95858.50;1725652;83;21077;-74
2022/04/11 09:13:51;;;;;;;4.17;2.27;;;;;;;7.85;47.77;95854.03;1726384;83;21018;-74
2022/04/11 09:16:18;;;;;;;6.03;2.53;;;;;;;7.70;47.15;95858.89;1726256;83;21061;-74
2022/04/11 09:18:52;;;;;;;4.83;2.77;;;;;;;7.24;45.62;95862.95;1726436;83;21014;-74
2022/04/11 09:21:21;;;;;;;4.75;2.83;;;;;;;6.96;47.96;95861.23;1726661;83;20963;-74
2022/04/11 09:23:48;;;;;;;4.47;2.80;;;;;;;6.75;47.73;95869.50;1725934;83;21105;-72
2022/04/11 09:26:23;;;;;;;5.10;3.00;;;;;;;6.74;49.40;95864.28;1725619;83;21081;-73
2022/04/11 09:29:03;;;;;;;4.47;2.57;;;;;;;6.80;50.00;95866.89;1722948;83;21023;-73
2022/04/11 09:31:32;;;;;;;3.87;2.10;;;;;;;6.79;49.48;95864.71;1756949;82;21008;-73
2022/04/11 09:34:05;;;;;;;4.80;2.60;;;;;;;6.66;47.05;95862.97;1756962;82;21023;-73
2022/04/11 09:36:51;;;;;;;6.63;2.70;;;;;;;6.60;46.22;95858.59;1749968;81;21019;-73
2022/04/11 09:39:25;;;;;;;3.73;2.40;;;;;;;6.61;46.02;95860.33;1757125;81;21023;-73
2022/04/11 09:41:52;;;;;;;;;;;;;;;6.62;48.69;95870.37;1759483;81;21568;-73
2022/04/11 09:44:28;;;;;;;3.77;2.50;;;;;;;6.78;49.51;95866.91;1757227;81;20179;-74
2022/04/11 09:47:04;;;;;;;3.20;2.30;;;;;;;6.74;48.60;95866.45;1721213;83;20982;-74
2022/04/11 09:49:32;;;;;;;4.30;2.63;;;;;;;6.55;47.69;95875.17;1757178;81;21066;-74
2022/04/11 09:52:14;;;;;;;5.83;3.03;;;;;;;6.30;47.48;95875.14;1757078;81;21054;-75
2022/04/11 09:54:44;;;;;;;6.67;3.27;;;;;;;6.10;48.68;95871.16;1721042;83;21027;-74
2022/04/11 09:57:14;;;;;;;3.20;2.57;;;;;;;6.05;47.72;95885.55;1757194;81;21500;-74
2022/04/11 09:59:43;;;;;;;4.13;2.30;;;;;;;6.05;47.81;95884.23;1720976;83;21046;-74
2022/04/11 10:02:14;;;;;;;3.50;2.50;;;;;;;6.01;47.69;95871.98;1757200;81;21027;-74
2022/04/11 10:04:41;;;;;;;3.40;2.20;;;;;;;6.15;49.21;95874.66;1757295;81;20980;-73
2022/04/11 10:07:10;;;;;;;4.57;2.37;;;;;;;6.22;46.44;95880.37;1757201;82;20979;-73
2022/04/11 10:09:41;;;;;;;4.63;3.43;;;;;;;6.38;46.89;95872.54;1756881;82;21019;-73
2022/04/11 10:12:09;;;;;;;3.47;2.60;;;;;;;6.54;46.26;95868.19;1757036;82;20991;-73
2022/04/11 10:14:37;;;;;;;4.77;3.33;;;;;;;6.77;46.04;95870.39;1757318;82;20984;-73
2022/04/11 10:17:04;;;;;;;4.90;2.50;;;;;;;6.99;46.25;95873.03;1757278;82;20991;-74
2022/04/11 10:19:34;;;;;;;2.60;1.97;;;;;;;6.88;46.13;95867.34;1757067;82;21462;-73
2022/04/11 10:22:09;;;;;;;3.10;2.50;;;;;;;7.36;47.81;95860.30;1757189;82;20972;-74
2022/04/11 10:24:58;;;;;;;5.10;2.73;;;;;;;7.76;46.14;95861.52;1757040;81;21035;-74
2022/04/11 10:27:25;;;;;;;3.00;2.40;;;;;;;7.63;46.32;95854.98;1756916;81;21023;-74
2022/04/11 10:29:54;;;;;;;2.73;2.30;;;;;;;7.45;46.99;95859.84;1720882;83;21024;-74
2022/04/11 10:32:24;;;;;;;7.30;2.40;;;;;;;7.05;46.35;95858.58;1757098;82;21027;-74
2022/04/11 10:35:09;;;;;;;5.27;2.47;;;;;;;6.86;45.45;95866.91;1757115;82;21015;-74
2022/04/11 10:37:58;;;;;;;3.73;2.90;;;;;;;6.50;46.23;95877.37;1720988;83;20951;-74
2022/04/11 10:40:28;;;;;;;7.07;3.80;;;;;;;6.35;47.73;95873.82;1757328;81;21015;-73
2022/04/11 10:43:09;;;;;;;7.07;4.10;;;;;;;6.25;48.11;95875.13;1721131;83;21022;-73
2022/04/11 10:45:46;;;;;;;4.93;2.63;;;;;;;6.28;48.69;95877.75;1757360;82;21031;-73
2022/04/11 10:48:14;;;;;;;5.00;2.93;;;;;;;6.57;48.46;95869.05;1757491;81;21474;-73
2022/04/11 10:50:43;;;;;;;3.60;2.47;;;;;;;7.31;50.22;95865.13;1756870;82;21022;-73
2022/04/11 10:53:24;;;;;;;5.20;3.00;;;;;;;8.03;45.58;95857.88;1757078;81;21002;-73
2022/04/11 10:56:08;;;;;;;7.13;4.43;;;;;;;8.19;44.01;95850.82;1720596;83;21018;-74
2022/04/11 10:58:50;;;;;;;9.47;5.30;;;;;;;8.14;43.83;95853.91;1757256;82;21469;-74
2022/04/11 11:01:49;;;;;;;8.07;5.47;;;;;;;7.80;43.75;95859.30;1757008;82;21015;-74
2022/04/11 11:04:18;;;;;;;6.73;3.50;;;;;;;7.65;44.49;95864.59;1757159;82;21280;-73
2022/04/11 11:06:45;;;;;;;7.97;4.50;;;;;;;7.42;43.98;95855.92;1757172;82;21023;-72
2022/04/11 11:09:18;;;;;;;8.67;5.60;;;;;;;7.24;45.69;95870.82;1756733;82;21747;-72
2022/04/11 11:11:47;;;;;;;5.83;2.70;;;;;;;7.09;44.92;95868.21;1757078;82;21047;-72
2022/04/11 11:14:40;;;;;;;5.90;2.90;;;;;;;7.04;44.13;95870.83;1757234;81;20996;-72
2022/04/11 11:17:07;;;;;;;3.03;2.17;;;;;;;6.95;44.37;95865.58;1757164;81;20984;-72
2022/04/11 11:20:08;;;;;;;3.90;2.20;;;;;;;6.90;42.13;95860.36;1757185;81;21008;-71
2022/04/11 11:22:56;;;;;;;6.80;2.27;;;;;;;7.23;44.29;95860.31;1721037;83;21002;-72
2022/04/11 11:25:23;;;;;;;5.57;3.40;;;;;;;8.41;45.28;95845.45;1687593;83;21077;-72
2022/04/11 11:27:50;;;;;;;4.97;2.53;;;;;;;9.39;42.81;95834.58;1756960;82;21011;-72
2022/04/11 11:30:17;;;;;;;6.97;3.52;;;;;;;10.26;41.48;95832.23;1749046;82;21003;-72
2022/04/11 11:32:44;;;;;;;9.73;4.42;;;;;;;9.96;39.96;95840.09;1713280;84;21027;-72
2022/04/11 11:35:11;;;;;;;5.65;2.65;;;;;;;9.43;39.72;95839.81;1749063;82;21012;-71
2022/04/11 11:37:39;;;;;;;8.75;2.85;;;;;;;8.89;41.42;95853.88;1713157;83;21095;-72
2022/04/11 11:40:09;;;;;;;8.40;4.20;;;;;;;8.22;42.33;95854.74;1748877;82;21011;-71
2022/04/11 11:42:38;;;;;;;3.00;2.07;;;;;;;7.91;42.94;95858.38;1713197;83;20999;-72